Time;durP1;ratioP1;P1;durP2;ratioP2;P2;SDS_P1;SDS_P2;PMS_P1;PMS_P2;Temp;Humidity;BMP_temperature;BMP_pressure;BME280_temperature;BME280_humidity;BME280_pressure;Samples;Min_cycle;Max_cycle;Signal;HPM_P1;HPM_P2
2021/08/01 00:01:06;;;;;;;7.88;5.60;;;18.00;99.90;;;;;;20749221;28;20034;-51
2021/08/01 00:11:11;;;;;;;9.50;5.80;;;18.00;99.90;;;;;;20748059;28;20038;-51
2021/08/01 00:21:13;;;;;;;9.68;5.85;;;17.90;99.90;;;;;;20747691;28;20380;-56
2021/08/01 00:31:15;;;;;;;9.02;5.85;;;18.00;99.90;;;;;;20746806;28;20432;-53
2021/08/01 00:41:17;;;;;;;10.43;5.97;;;17.90;99.90;;;;;;20746178;28;20088;-50
2021/08/01 00:51:18;;;;;;;11.85;6.93;;;17.60;99.90;;;;;;20745068;28;20030;-49
2021/08/01 01:01:49;;;;;;;11.55;8.23;;;17.30;99.90;;;;;;20744285;28;20049;-56
2021/08/01 01:11:53;;;;;;;10.60;8.60;;;17.10;99.90;;;;;;20813061;28;20553;-53
2021/08/01 01:22:19;;;;;;;17.73;8.80;;;16.80;99.90;;;;;;20822586;28;20128;-56
2021/08/01 01:32:54;;;;;;;15.60;10.88;;;16.60;99.90;;;;;;20765908;28;20088;-49
2021/08/01 01:42:57;;;;;;;21.27;14.13;;;16.60;99.90;;;;;;20741579;28;20026;-57
2021/08/01 01:53:00;;;;;;;21.75;14.40;;;16.60;99.90;;;;;;20741066;28;20034;-57
2021/08/01 02:03:02;;;;;;;20.38;15.15;;;16.70;99.90;;;;;;20738834;28;20451;-56
2021/08/01 02:13:56;;;;;;;21.33;14.48;;;16.70;99.90;;;;;;20739820;28;20096;-53
2021/08/01 02:24:02;;;;;;;25.88;13.82;;;16.80;99.90;;;;;;20730102;28;20041;-53
2021/08/01 02:34:08;;;;;;;20.17;13.43;;;16.80;99.90;;;;;;20748263;28;20384;-55
2021/08/01 02:44:20;;;;;;;18.67;13.25;;;16.80;99.90;;;;;;20755314;28;20080;-56
2021/08/01 02:54:23;;;;;;;17.70;13.00;;;16.80;99.90;;;;;;20755855;28;20077;-50
2021/08/01 03:04:26;;;;;;;20.02;13.32;;;16.80;99.90;;;;;;20753156;28;20096;-53
2021/08/01 03:14:28;;;;;;;13.02;7.63;;;16.20;99.90;;;;;;20751851;28;20042;-56
2021/08/01 03:24:30;;;;;;;18.15;6.30;;;16.20;99.90;;;;;;20750821;28;20084;-55
2021/08/01 03:34:38;;;;;;;13.57;5.75;;;15.90;99.90;;;;;;20750313;28;20188;-53
2021/08/01 03:44:41;;;;;;;11.85;5.05;;;16.10;99.90;;;;;;20749576;28;20108;-49
2021/08/01 03:54:42;;;;;;;10.13;4.72;;;16.30;99.90;;;;;;20748288;28;20034;-56
2021/08/01 04:04:44;;;;;;;9.55;4.95;;;16.40;99.90;;;;;;20748806;28;20088;-56
2021/08/01 04:14:45;;;;;;;16.02;11.40;;;16.10;99.90;;;;;;20748602;28;20041;-52
2021/08/01 04:24:47;;;;;;;12.98;9.13;;;15.90;99.90;;;;;;20748851;28;20030;-54
2021/08/01 04:34:48;;;;;;;11.38;5.78;;;15.80;99.90;;;;;;20747010;28;20091;-54
2021/08/01 04:44:50;;;;;;;19.00;11.27;;;15.90;99.90;;;;;;20746733;28;20037;-56
2021/08/01 04:54:52;;;;;;;19.15;11.88;;;15.90;99.90;;;;;;20745680;28;20092;-53
2021/08/01 05:04:53;;;;;;;12.98;7.88;;;16.10;99.90;;;;;;20758109;28;20079;-56
2021/08/01 05:14:55;;;;;;;14.65;8.00;;;16.00;99.90;;;;;;20825016;28;20040;-56
2021/08/01 05:24:56;;;;;;;10.10;5.47;;;16.40;99.90;;;;;;20824434;28;20483;-54
2021/08/01 05:34:58;;;;;;;8.98;4.50;;;17.00;99.90;;;;;;20747468;28;20029;-50
2021/08/01 05:45:00;;;;;;;12.23;5.82;;;17.20;99.90;;;;;;20741927;28;20104;-53
2021/08/01 05:55:03;;;;;;;11.15;5.63;;;17.60;99.90;;;;;;20741208;28;20521;-51
2021/08/01 06:05:05;;;;;;;10.45;6.70;;;17.80;99.90;;;;;;20675068;28;20054;-55
2021/08/01 06:15:07;;;;;;;9.98;6.32;;;17.90;99.90;;;;;;20659325;28;20038;-50
2021/08/01 06:25:09;;;;;;;9.07;5.82;;;18.50;99.90;;;;;;20658582;28;20504;-51
2021/08/01 06:35:11;;;;;;;9.98;6.22;;;18.90;99.90;;;;;;20658330;28;20046;-53
2021/08/01 06:45:13;;;;;;;9.88;7.15;;;19.30;99.90;;;;;;20658146;28;20042;-53
2021/08/01 06:55:15;;;;;;;13.25;8.32;;;18.70;99.90;;;;;;20657562;28;20041;-49
2021/08/01 07:05:16;;;;;;;16.70;8.50;;;18.00;99.90;;;;;;20737889;28;20038;-55
2021/08/01 07:15:23;;;;;;;12.27;7.30;;;19.20;99.90;;;;;;20737758;28;20373;-50
2021/08/01 07:25:25;;;;;;;12.77;7.35;;;19.60;99.90;;;;;;20752086;28;20030;-49
2021/08/01 07:35:26;;;;;;;11.10;7.20;;;21.40;99.90;;;;;;20751358;28;20439;-55
2021/08/01 07:45:33;;;;;;;7.88;6.45;;;20.10;99.90;;;;;;20750756;28;20111;-50
2021/08/01 07:55:35;;;;;;;12.15;7.28;;;19.00;99.90;;;;;;20749444;28;20167;-53
2021/08/01 08:05:37;;;;;;;11.18;8.13;;;19.20;99.90;;;;;;20749319;28;20046;-54
2021/08/01 08:15:39;;;;;;;14.23;10.20;;;18.30;99.90;;;;;;20748043;28;20038;-54
2021/08/01 08:25:42;;;;;;;14.13;10.20;;;18.10;99.90;;;;;;20747418;28;20030;-53
2021/08/01 08:35:44;;;;;;;9.68;7.18;;;19.20;99.90;;;;;;20746953;28;20042;-51
2021/08/01 08:45:51;;;;;;;11.90;9.80;;;21.10;99.90;;;;;;20745045;28;20061;-55
2021/08/01 08:55:54;;;;;;;11.85;9.35;;;21.00;99.90;;;;;;20744871;28;20034;-50
2021/08/01 09:05:59;;;;;;;12.50;8.23;;;20.20;99.90;;;;;;20744296;28;20029;-51
2021/08/01 09:16:00;;;;;;;14.82;8.55;;;19.80;99.90;;;;;;20813220;28;20034;-53
2021/08/01 09:26:05;;;;;;;13.95;11.25;;;20.00;99.90;;;;;;20788598;28;20384;-54
2021/08/01 09:36:14;;;;;;;12.70;8.48;;;19.90;99.90;;;;;;20742329;28;20030;-50
2021/08/01 09:46:16;;;;;;;9.23;7.10;;;20.00;99.90;;;;;;20741015;28;20034;-54
2021/08/01 09:56:22;;;;;;;15.43;11.40;;;20.40;99.90;;;;;;20739561;28;20050;-50
2021/08/01 10:06:25;;;;;;;15.30;10.10;;;20.20;99.90;;;;;;20671736;28;20111;-50
2021/08/01 10:16:27;;;;;;;11.00;8.07;;;19.70;99.90;;;;;;20820359;28;20114;-53
2021/08/01 10:26:35;;;;;;;9.30;6.80;;;18.80;99.90;;;;;;20821236;28;20356;-50
2021/08/01 10:36:39;;;;;;;8.10;6.55;;;18.80;99.90;;;;;;20821199;28;20033;-53
2021/08/01 10:46:42;;;;;;;14.52;8.52;;;19.20;99.90;;;;;;20770978;28;20431;-51
2021/08/01 10:56:44;;;;;;;13.70;9.98;;;18.60;99.90;;;;;;20750439;28;20046;-50
2021/08/01 11:06:46;;;;;;;10.77;4.90;;;17.70;99.90;;;;;;20754693;28;20427;-55
2021/08/01 11:16:48;;;;;;;8.23;4.22;;;17.30;99.90;;;;;;20753123;28;20361;-56
2021/08/01 11:27:05;;;;;;;10.23;6.85;;;15.60;99.90;;;;;;20752849;28;20081;-49
2021/08/01 11:37:21;;;;;;;9.68;6.00;;;17.10;99.90;;;;;;20750932;28;20030;-50
2021/08/01 11:47:23;;;;;;;9.27;4.90;;;19.00;99.90;;;;;;20750868;28;20034;-53
2021/08/01 11:57:30;;;;;;;7.63;4.97;;;20.20;99.90;;;;;;20749019;28;20046;-54
2021/08/01 12:07:44;;;;;;;6.72;5.07;;;18.70;99.90;;;;;;20749262;28;20050;-51
2021/08/01 12:17:49;;;;;;;9.95;4.70;;;17.70;99.90;;;;;;20748384;28;20050;-51
2021/08/01 12:27:55;;;;;;;9.63;4.93;;;16.80;99.90;;;;;;18975479;28;10002086;-56
2021/08/01 12:38:08;;;;;;;8.15;5.45;;;15.90;99.90;;;;;;20759355;28;20107;-56
2021/08/01 12:48:13;;;;;;;6.60;4.57;;;15.50;99.90;;;;;;20747049;28;20439;-52
2021/08/01 12:58:15;;;;;;;4.13;3.13;;;15.50;99.90;;;;;;20746326;28;20387;-54
2021/08/01 13:08:45;;;;;;;3.50;1.98;;;15.30;99.90;;;;;;20745351;28;20046;-55
2021/08/01 13:18:49;;;;;;;4.97;3.53;;;15.10;99.90;;;;;;20744258;28;20128;-52
2021/08/01 13:28:52;;;;;;;8.80;5.53;;;15.00;99.90;;;;;;20742716;28;20038;-54
2021/08/01 13:39:01;;;;;;;8.15;6.10;;;14.60;99.90;;;;;;20743286;28;20022;-52
2021/08/01 13:49:03;;;;;;;8.48;5.00;;;14.30;99.90;;;;;;20757203;28;20046;-50
2021/08/01 13:59:06;;;;;;;6.97;4.32;;;14.30;99.90;;;;;;20741042;28;20046;-53
2021/08/01 14:09:08;;;;;;;6.97;4.40;;;14.30;99.90;;;;;;20741419;28;20506;-53
2021/08/01 14:19:10;;;;;;;6.00;3.70;;;14.00;99.90;;;;;;20741862;28;20392;-53
2021/08/01 14:29:15;;;;;;;6.32;4.57;;;14.00;99.90;;;;;;20749376;28;20538;-55
2021/08/01 14:39:17;;;;;;;7.95;5.55;;;14.00;99.90;;;;;;20756722;28;20033;-52
2021/08/01 14:49:27;;;;;;;10.30;5.97;;;14.20;99.90;;;;;;20755099;28;20045;-54
2021/08/01 14:59:35;;;;;;;12.18;6.95;;;14.00;99.90;;;;;;20754711;28;20589;-54
2021/08/01 15:09:44;;;;;;;9.73;6.50;;;14.10;99.90;;;;;;20754681;28;20069;-51
2021/08/01 15:19:49;;;;;;;4.15;2.58;;;14.40;99.90;;;;;;20754450;28;20030;-53
2021/08/01 15:29:50;;;;;;;6.13;4.07;;;14.60;99.90;;;;;;20768954;28;20034;-55
2021/08/01 15:39:55;;;;;;;10.00;4.75;;;14.70;99.90;;;;;;20751736;28;20069;-56
2021/08/01 15:49:57;;;;;;;5.80;4.32;;;14.50;99.90;;;;;;20763333;28;20505;-54
2021/08/01 16:00:03;;;;;;;11.07;4.82;;;14.40;99.90;;;;;;20793654;28;20400;-54
2021/08/01 16:10:12;;;;;;;3.38;2.33;;;14.00;99.90;;;;;;20750846;28;20030;-51
2021/08/01 16:20:16;;;;;;;2.72;1.10;;;13.70;99.90;;;;;;20748018;28;20107;-56
2021/08/01 16:30:22;;;;;;;3.42;1.70;;;13.50;99.90;;;;;;20748831;28;20464;-55
2021/08/01 16:40:24;;;;;;;1.40;1.25;;;13.30;99.90;;;;;;20748187;28;20084;-54
2021/08/01 16:50:35;;;;;;;1.77;1.33;;;13.20;99.90;;;;;;20746317;28;20045;-53
2021/08/01 17:01:02;;;;;;;1.80;1.48;;;13.20;99.90;;;;;;20746206;28;20041;-53
2021/08/01 17:11:18;;;;;;;1.25;1.05;;;13.00;99.90;;;;;;20809616;28;20084;-53
2021/08/01 17:21:20;;;;;;;2.80;1.30;;;12.70;99.90;;;;;;20826979;28;20452;-53
2021/08/01 17:31:33;;;;;;;2.17;1.40;;;12.50;99.90;;;;;;20775923;28;20091;-53
2021/08/01 17:41:38;;;;;;;2.58;1.15;;;12.40;99.90;;;;;;20743854;28;20057;-54
2021/08/01 17:51:39;;;;;;;1.67;1.10;;;12.50;99.90;;;;;;20743257;28;20508;-51
2021/08/01 18:01:41;;;;;;;1.92;1.38;;;12.50;99.90;;;;;;20779131;28;20046;-50
2021/08/01 18:11:52;;;;;;;4.60;0.90;;;12.50;99.90;;;;;;20823605;28;20577;-56
2021/08/01 18:21:53;;;;;;;0.80;0.50;;;12.30;99.90;;;;;;20823054;28;20079;-54
2021/08/01 18:31:58;;;;;;;0.88;0.40;;;12.10;99.90;;;;;;20823618;28;20557;-53
2021/08/01 18:42:06;;;;;;;1.15;0.50;;;12.50;99.90;;;;;;20822487;28;20038;-55
2021/08/01 18:52:09;;;;;;;0.75;0.40;;;12.00;99.90;;;;;;20821003;28;20088;-54
2021/08/01 19:02:11;;;;;;;1.13;0.75;;;12.90;99.90;;;;;;20763847;28;20415;-56
2021/08/01 19:12:13;;;;;;;0.68;0.40;;;12.50;99.90;;;;;;20744035;28;20476;-53
2021/08/01 19:22:26;;;;;;;0.82;0.63;;;13.00;99.90;;;;;;20758840;28;20038;-51
2021/08/01 19:32:43;;;;;;;1.02;0.60;;;12.90;99.90;;;;;;20756180;28;20041;-50
2021/08/01 19:42:45;;;;;;;1.20;0.60;;;13.10;99.90;;;;;;20752956;28;20057;-54
2021/08/01 19:52:47;;;;;;;0.68;0.40;;;13.10;99.90;;;;;;20753154;28;20049;-51
2021/08/01 20:02:51;;;;;;;1.38;0.75;;;12.50;99.90;;;;;;20752008;28;20050;-48
2021/08/01 20:12:52;;;;;;;0.75;0.50;;;11.60;99.90;;;;;;20751796;28;20037;-53
2021/08/01 20:22:58;;;;;;;0.65;0.43;;;11.30;99.90;;;;;;20748148;28;20399;-51
2021/08/01 20:33:00;;;;;;;1.13;0.60;;;11.10;99.90;;;;;;20749242;28;20033;-51
2021/08/01 20:43:03;;;;;;;1.02;0.52;;;10.80;99.90;;;;;;20748144;28;20369;-51
2021/08/01 20:53:05;;;;;;;2.00;1.10;;;11.10;99.90;;;;;;20745518;28;20375;-50
2021/08/01 21:03:08;;;;;;;1.67;1.30;;;10.90;99.90;;;;;;20751675;28;20054;-56
2021/08/01 21:13:10;;;;;;;1.92;1.38;;;10.80;99.90;;;;;;20665302;28;20049;-57
2021/08/01 21:23:11;;;;;;;2.08;1.10;;;10.90;99.90;;;;;;20663263;28;20030;-57
2021/08/01 21:33:13;;;;;;;1.05;0.70;;;11.10;99.90;;;;;;20727896;28;20054;-50
2021/08/01 21:43:15;;;;;;;0.65;0.43;;;11.30;99.90;;;;;;20742808;28;20088;-52
2021/08/01 21:53:17;;;;;;;1.52;0.52;;;11.60;99.90;;;;;;20744036;28;20038;-51
2021/08/01 22:03:20;;;;;;;2.00;0.77;;;11.70;99.90;;;;;;20792637;28;20476;-49
2021/08/01 22:13:25;;;;;;;2.45;0.80;;;11.60;99.90;;;;;;20823204;28;20037;-52
2021/08/01 22:23:26;;;;;;;0.75;0.55;;;11.50;99.90;;;;;;20822615;28;20034;-53
2021/08/01 22:33:29;;;;;;;0.60;0.30;;;11.30;99.90;;;;;;20822658;28;20034;-46
2021/08/01 22:43:31;;;;;;;0.30;0.30;;;11.10;99.90;;;;;;20821799;28;20083;-48
2021/08/01 22:53:34;;;;;;;0.25;0.10;;;10.90;99.90;;;;;;20835241;28;20475;-49
2021/08/01 23:03:40;;;;;;;0.20;0.10;;;10.60;99.90;;;;;;20768484;28;20444;-49
2021/08/01 23:14:15;;;;;;;0.40;0.13;;;10.80;99.90;;;;;;20754710;28;20099;-48
2021/08/01 23:24:21;;;;;;;0.10;0.10;;;10.90;99.90;;;;;;20753955;28;20034;-50
2021/08/01 23:34:24;;;;;;;0.10;0.10;;;11.10;99.90;;;;;;20754495;28;20049;-52
2021/08/01 23:44:30;;;;;;;0.10;0.10;;;11.40;99.90;;;;;;20752363;28;20030;-48
2021/08/01 23:54:48;;;;;;;0.85;0.00;;;11.50;99.90;;;;;;20751251;28;20056;-50
